Terminal Aerodrome Forecast
Issued by NWS

Home | Current Version | Previous Version | Text Only | Print | Product List | Glossary On
Versions: 1 2 3 4 5 6 7 8 9 10 11 12 13 14 15
000
FTUS45 KRIW 301727
TAFBPI
TAF
KBPI 301727Z 3018/0118 26007KT P6SM VCSH SCT100
     FM302000 30011G18KT P6SM VCSH BKN100
     FM302300 VRB12G22KT P6SM VCTS SCT070CB BKN100
     FM010500 VRB06KT P6SM BKN110=

USA.gov is the U.S. government's official web portal to all federal, state and local government web resources and services.